Time;durP1;ratioP1;P1;durP2;ratioP2;P2;SDS_P1;SDS_P2;PMS_P1;PMS_P2;Temp;Humidity;BMP_temperature;BMP_pressure;BME280_temperature;BME280_humidity;BME280_pressure;Samples;Min_cycle;Max_cycle;Signal;HPM_P1;HPM_P2
2021/04/23 00:01:48;;;;;;;24.47;5.43;;;;;;;3.89;77.60;101448.94;5055259;28;20202;-70
2021/04/23 00:04:14;;;;;;;14.47;4.83;;;;;;;3.88;77.67;101444.53;5055332;28;20174;-69
2021/04/23 00:06:44;;;;;;;18.73;5.90;;;;;;;3.90;77.57;101437.47;5053867;28;20639;-69
2021/04/23 00:09:19;;;;;;;20.23;5.53;;;;;;;3.85;78.66;101447.25;5058359;28;20506;-70
2021/04/23 00:11:46;;;;;;;16.10;5.43;;;;;;;3.84;77.94;101440.22;5055420;28;20639;-69
2021/04/23 00:14:14;;;;;;;16.10;5.33;;;;;;;3.88;77.87;101452.47;5048692;28;20233;-69
2021/04/23 00:16:40;;;;;;;17.43;5.63;;;;;;;3.83;78.13;101433.19;5069524;28;20180;-69
2021/04/23 00:19:06;;;;;;;23.73;6.13;;;;;;;3.79;78.68;101452.63;5068903;28;20207;-69
2021/04/23 00:21:32;;;;;;;16.70;5.53;;;;;;;3.82;78.81;101444.66;5065610;28;20163;-70
2021/04/23 00:23:58;;;;;;;17.67;5.97;;;;;;;3.77;78.63;101441.22;5062672;28;20175;-71
2021/04/23 00:26:23;;;;;;;15.53;5.27;;;;;;;3.81;78.55;101437.63;5055520;28;20205;-70
2021/04/23 00:28:49;;;;;;;21.53;5.17;;;;;;;3.79;78.86;101447.34;5054787;28;20178;-70
2021/04/23 00:31:14;;;;;;;15.47;5.90;;;;;;;3.74;78.94;101450.06;5053815;28;20187;-70
2021/04/23 00:33:40;;;;;;;19.43;5.67;;;;;;;3.72;79.32;101443.06;5055096;28;20168;-71
2021/04/23 00:36:06;;;;;;;24.37;5.80;;;;;;;3.72;78.99;101445.69;5053077;28;20199;-69
2021/04/23 00:38:32;;;;;;;18.97;5.23;;;;;;;3.68;79.01;101431.63;5053642;28;20167;-69
2021/04/23 00:41:01;;;;;;;18.93;5.83;;;;;;;3.67;78.78;101442.22;5053390;28;20255;-69
2021/04/23 00:43:31;;;;;;;13.60;5.17;;;;;;;3.68;79.17;101451.88;5054815;28;20168;-69
2021/04/23 00:45:57;;;;;;;25.37;5.80;;;;;;;3.63;79.33;101430.84;5052908;28;20208;-68
2021/04/23 00:48:23;;;;;;;12.50;4.93;;;;;;;3.59;79.51;101439.69;5054763;28;20278;-69
2021/04/23 00:50:51;;;;;;;16.20;5.50;;;;;;;3.57;79.35;101435.34;5053473;28;20191;-69
2021/04/23 00:53:21;;;;;;;18.33;5.23;;;;;;;3.55;79.25;101429.22;5052959;28;20206;-70
2021/04/23 00:55:47;;;;;;;19.57;5.53;;;;;;;3.46;79.94;101432.88;5055507;28;20745;-69
2021/04/23 00:58:16;;;;;;;15.40;5.90;;;;;;;3.46;79.66;101440.78;5057742;28;20167;-70
2021/04/23 01:00:45;;;;;;;18.50;5.90;;;;;;;3.47;79.75;101453.06;5054646;28;20185;-70
2021/04/23 01:03:11;;;;;;;16.53;5.67;;;;;;;3.44;79.84;101434.66;5053384;28;20258;-72
2021/04/23 01:05:37;;;;;;;18.70;5.60;;;;;;;3.38;79.96;101448.81;5054205;28;20203;-70
2021/04/23 01:08:03;;;;;;;23.80;6.83;;;;;;;3.44;80.04;101443.44;5055036;28;20185;-71
2021/04/23 01:10:29;;;;;;;15.67;5.70;;;;;;;3.39;79.52;101442.63;5055752;28;20167;-70
2021/04/23 01:12:55;;;;;;;26.47;6.33;;;;;;;3.29;80.51;101443.63;5054538;28;20227;-69
2021/04/23 01:15:21;;;;;;;17.33;5.37;;;;;;;3.36;80.59;101453.25;5054221;28;20202;-69
2021/04/23 01:17:46;;;;;;;22.93;6.67;;;;;;;3.30;80.35;101448.00;5054548;28;20585;-70
2021/04/23 01:20:12;;;;;;;13.93;5.57;;;;;;;3.32;80.45;101453.28;5054504;28;20564;-69
2021/04/23 01:22:38;;;;;;;15.73;4.93;;;;;;;3.25;80.73;101439.28;5053685;28;20266;-69
2021/04/23 01:25:05;;;;;;;18.23;5.90;;;;;;;3.32;80.32;101440.94;5053595;28;20222;-71
2021/04/23 01:27:30;;;;;;;24.17;6.40;;;;;;;3.23;80.91;101446.34;5053835;28;20224;-70
2021/04/23 01:29:55;;;;;;;20.37;4.87;;;;;;;3.26;80.84;101448.06;5053704;28;20666;-70
2021/04/23 01:32:21;;;;;;;19.77;5.60;;;;;;;3.26;80.38;101454.22;5053445;28;20234;-69
2021/04/23 01:34:46;;;;;;;18.83;4.93;;;;;;;3.30;80.37;101447.13;5052819;28;20285;-69
2021/04/23 01:37:13;;;;;;;19.87;6.47;;;;;;;3.26;80.57;101453.34;5053745;28;20256;-71
2021/04/23 01:39:40;;;;;;;23.80;5.63;;;;;;;3.22;80.67;101443.75;5053706;28;20171;-71
2021/04/23 01:42:08;;;;;;;20.13;6.17;;;;;;;3.21;80.80;101455.19;5053950;28;20182;-70
2021/04/23 01:44:36;;;;;;;19.57;5.63;;;;;;;3.12;81.08;101450.91;5053184;28;20167;-70
2021/04/23 01:47:03;;;;;;;20.93;5.87;;;;;;;3.12;81.16;101450.91;5052443;28;20163;-68
2021/04/23 01:49:30;;;;;;;17.07;5.30;;;;;;;3.22;80.75;101454.28;5053742;28;20598;-70
2021/04/23 01:52:11;;;;;;;15.77;5.30;;;;;;;3.17;80.96;101456.13;5052620;28;20195;-69
2021/04/23 01:54:37;;;;;;;17.17;5.30;;;;;;;3.16;80.97;101459.66;5053447;28;20201;-69
2021/04/23 01:57:03;;;;;;;24.83;5.90;;;;;;;3.16;81.18;101465.78;5052101;28;20179;-70
2021/04/23 01:59:29;;;;;;;19.17;6.53;;;;;;;3.11;81.50;101467.63;5052210;28;20187;-70
2021/04/23 02:01:55;;;;;;;17.53;5.57;;;;;;;3.12;81.10;101474.63;5053131;28;20695;-70
2021/04/23 02:04:21;;;;;;;16.20;5.50;;;;;;;3.10;81.52;101471.16;5052101;28;20179;-70
2021/04/23 02:06:47;;;;;;;18.80;5.83;;;;;;;3.09;81.01;101475.56;5053648;28;20183;-70
2021/04/23 02:09:13;;;;;;;21.30;6.17;;;;;;;3.11;81.07;101471.13;5052211;28;20517;-68
2021/04/23 02:11:40;;;;;;;16.77;6.00;;;;;;;3.16;80.97;101476.34;5053227;28;20202;-70
2021/04/23 02:14:05;;;;;;;15.57;5.53;;;;;;;3.21;80.71;101479.78;5053391;28;20229;-71
2021/04/23 02:16:31;;;;;;;22.27;6.30;;;;;;;3.21;80.67;101485.06;5053408;28;20189;-70
2021/04/23 02:18:56;;;;;;;16.80;6.07;;;;;;;3.18;nan;101474.56;5054978;28;20207;-70
2021/04/23 02:21:22;;;;;;;17.50;5.73;;;;;;;3.19;80.67;101489.50;5053191;28;20204;-68
2021/04/23 02:23:49;;;;;;;20.07;6.10;;;;;;;3.16;80.48;101486.91;5035555;28;20172;-70
2021/04/23 02:26:15;;;;;;;15.57;5.60;;;;;;;3.16;80.58;101483.38;5053320;28;20197;-70
2021/04/23 02:28:41;;;;;;;20.17;6.13;;;;;;;3.07;80.85;101487.00;5052568;28;20535;-69
2021/04/23 02:31:11;;;;;;;21.07;5.83;;;;;;;3.08;80.81;101491.41;5053214;28;20182;-68
2021/04/23 02:33:37;;;;;;;15.70;5.90;;;;;;;3.05;80.94;101499.34;5053492;28;20174;-71
2021/04/23 02:36:02;;;;;;;24.70;7.03;;;;;;;3.04;80.99;101502.88;5052911;28;20200;-70
2021/04/23 02:38:28;;;;;;;19.03;5.83;;;;;;;3.05;80.78;101504.63;5053302;28;20198;-69
2021/04/23 02:40:54;;;;;;;14.57;6.37;;;;;;;2.99;81.07;101496.78;5053415;28;20599;-70
2021/04/23 02:43:23;;;;;;;19.90;6.17;;;;;;;2.99;81.28;101494.16;5052874;28;20639;-70
2021/04/23 02:45:51;;;;;;;20.77;6.50;;;;;;;2.95;81.43;101505.59;5053694;28;20210;-70
2021/04/23 02:48:18;;;;;;;17.03;6.40;;;;;;;2.89;81.52;101511.81;5057271;28;20175;-70
2021/04/23 02:50:47;;;;;;;23.30;6.30;;;;;;;2.83;81.66;101510.13;5056851;28;20171;-70
2021/04/23 02:53:13;;;;;;;18.07;5.87;;;;;;;2.76;82.17;101505.81;5056386;28;20583;-71
2021/04/23 02:55:38;;;;;;;17.40;5.50;;;;;;;2.73;82.41;101515.50;5056572;28;20249;-70
2021/04/23 02:58:12;;;;;;;17.40;5.93;;;;;;;2.70;82.54;101511.13;5056568;28;20527;-70
2021/04/23 03:00:41;;;;;;;20.33;6.40;;;;;;;2.65;83.04;101510.31;5055200;28;20628;-70
2021/04/23 03:03:08;;;;;;;21.33;6.13;;;;;;;2.64;82.74;101513.84;5054836;28;20170;-70
2021/04/23 03:05:34;;;;;;;19.00;6.00;;;;;;;2.59;83.15;101512.97;5055855;28;20195;-70
2021/04/23 03:08:00;;;;;;;18.43;6.60;;;;;;;2.54;83.33;101517.44;5054790;28;20660;-70
2021/04/23 03:10:29;;;;;;;20.73;6.37;;;;;;;2.53;83.35;101518.31;5054807;28;20173;-70
2021/04/23 03:12:56;;;;;;;20.53;5.80;;;;;;;2.48;83.72;101518.34;5054793;28;20278;-69
2021/04/23 03:15:24;;;;;;;16.10;6.37;;;;;;;2.53;83.42;101517.44;5056016;28;20281;-68
2021/04/23 03:17:50;;;;;;;16.50;5.83;;;;;;;2.48;83.63;101507.81;5055888;28;20170;-69
2021/04/23 03:20:18;;;;;;;18.27;6.03;;;;;;;2.42;83.18;101517.53;5055973;28;20639;-69
2021/04/23 03:22:44;;;;;;;20.87;6.13;;;;;;;2.38;83.70;101521.09;5038302;28;20171;-68
2021/04/23 03:25:10;;;;;;;19.90;5.67;;;;;;;2.34;84.19;101516.75;5054992;28;20697;-69
2021/04/23 03:27:35;;;;;;;16.80;5.10;;;;;;;2.32;84.20;101506.22;5056710;28;20183;-69
2021/04/23 03:30:01;;;;;;;16.90;6.00;;;;;;;2.33;84.58;101507.09;5056404;28;20178;-70
2021/04/23 03:32:27;;;;;;;18.33;6.63;;;;;;;2.33;84.47;101515.00;5055334;28;20252;-69
2021/04/23 03:34:52;;;;;;;19.70;6.73;;;;;;;2.33;84.21;101507.09;5055275;28;20332;-69
2021/04/23 03:37:17;;;;;;;19.03;6.13;;;;;;;2.32;84.42;101507.97;5054156;28;20202;-68
2021/04/23 03:39:43;;;;;;;21.47;6.03;;;;;;;2.35;84.14;101514.09;5055800;28;20186;-69
2021/04/23 03:42:08;;;;;;;22.77;6.50;;;;;;;2.41;84.00;101515.78;5054068;28;20632;-69
2021/04/23 03:44:33;;;;;;;23.97;5.70;;;;;;;2.46;83.79;101512.22;5055403;28;20210;-69
2021/04/23 03:46:59;;;;;;;12.60;6.10;;;;;;;2.49;83.53;101517.47;5055251;28;20158;-68
2021/04/23 03:49:24;;;;;;;20.90;7.03;;;;;;;2.48;83.65;101517.50;5055324;28;20186;-69
2021/04/23 03:51:49;;;;;;;13.20;5.90;;;;;;;2.47;83.57;101511.34;5055686;28;20653;-68
2021/04/23 03:54:15;;;;;;;17.43;6.20;;;;;;;2.46;83.54;101512.22;5055035;28;20747;-69
2021/04/23 03:56:40;;;;;;;14.27;6.27;;;;;;;2.50;83.80;101523.63;5053270;28;20201;-69
2021/04/23 03:59:05;;;;;;;18.03;5.73;;;;;;;2.58;83.31;101527.03;5054769;28;20186;-68
2021/04/23 04:01:34;;;;;;;18.10;5.87;;;;;;;2.51;83.49;101525.34;5054754;28;20195;-69
2021/04/23 04:04:00;;;;;;;18.37;6.20;;;;;;;2.55;83.55;101532.34;5054698;28;20172;-70
2021/04/23 04:06:25;;;;;;;23.10;6.23;;;;;;;2.52;83.36;101524.47;5053506;28;20266;-68
2021/04/23 04:08:51;;;;;;;16.60;6.37;;;;;;;2.59;83.35;101533.19;5054419;28;20228;-70
2021/04/23 04:11:17;;;;;;;19.00;6.23;;;;;;;2.62;83.04;101541.97;5053960;28;20184;-70
2021/04/23 04:13:42;;;;;;;18.10;5.83;;;;;;;2.67;83.16;101541.94;5053388;28;20175;-69
2021/04/23 04:16:08;;;;;;;18.13;5.83;;;;;;;2.71;83.00;101544.53;5053308;28;20195;-69
2021/04/23 04:18:33;;;;;;;15.80;6.23;;;;;;;2.72;82.63;101534.84;5053407;28;20181;-69
2021/04/23 04:20:59;;;;;;;15.27;5.80;;;;;;;2.75;82.52;101537.44;5054367;28;20179;-68
2021/04/23 04:23:24;;;;;;;17.53;5.50;;;;;;;2.82;82.28;101541.78;5054227;28;20536;-69
2021/04/23 04:25:55;;;;;;;15.50;5.60;;;;;;;2.85;81.95;101551.41;5054830;28;20202;-68
2021/04/23 04:28:21;;;;;;;15.50;5.67;;;;;;;2.85;81.89;101551.41;5053303;28;20610;-69
2021/04/23 04:30:47;;;;;;;18.20;6.20;;;;;;;2.88;81.77;101552.25;5053343;28;20185;-69
2021/04/23 04:33:13;;;;;;;19.03;6.17;;;;;;;2.93;81.87;101553.06;5054681;28;20202;-69
2021/04/23 04:35:39;;;;;;;15.60;5.93;;;;;;;2.97;81.87;101557.44;5052954;28;20569;-69
2021/04/23 04:38:09;;;;;;;24.57;5.83;;;;;;;3.03;81.17;101561.78;5059650;28;20175;-69
2021/04/23 04:40:36;;;;;;;17.60;6.07;;;;;;;3.07;81.29;101560.88;5058486;28;20369;-69
2021/04/23 04:43:01;;;;;;;13.87;5.63;;;;;;;3.07;80.89;101566.16;5061483;28;20178;-70
2021/04/23 04:45:27;;;;;;;18.00;6.43;;;;;;;3.10;80.87;101561.69;5059154;28;20210;-70
2021/04/23 04:47:53;;;;;;;17.43;5.77;;;;;;;3.13;81.02;101558.16;5058451;28;20174;-70
2021/04/23 04:50:43;;;;;;;19.10;6.60;;;;;;;3.16;80.74;101566.03;5053039;28;20171;-70
2021/04/23 04:53:09;;;;;;;19.67;7.27;;;;;;;3.14;80.80;101565.19;5053102;28;20239;-69
2021/04/23 04:55:37;;;;;;;25.93;7.37;;;;;;;3.21;80.31;101564.22;5053936;28;20273;-70
2021/04/23 04:58:04;;;;;;;20.77;6.57;;;;;;;3.31;80.17;101567.63;5052528;28;20182;-68
2021/04/23 05:00:30;;;;;;;16.67;6.63;;;;;;;3.40;79.89;101570.19;5052512;28;20175;-70
2021/04/23 05:02:55;;;;;;;17.27;5.97;;;;;;;3.50;78.89;101578.84;5053880;28;20179;-70
2021/04/23 05:05:21;;;;;;;16.93;6.13;;;;;;;3.58;78.63;101569.06;5052722;28;20191;-70
2021/04/23 05:07:47;;;;;;;23.10;7.47;;;;;;;3.52;78.93;101575.28;5052454;28;20232;-69
2021/04/23 05:10:13;;;;;;;18.50;6.80;;;;;;;3.57;78.93;101575.25;5051545;28;20176;-65
2021/04/23 05:12:38;;;;;;;23.13;7.53;;;;;;;3.72;78.45;101573.28;5052103;28;20203;-65
2021/04/23 05:15:06;;;;;;;14.73;7.27;;;;;;;3.79;77.90;101586.41;5052188;28;20290;-67
2021/04/23 05:17:31;;;;;;;22.43;5.70;;;;;;;3.90;77.62;101590.66;5052276;28;20179;-68
2021/04/23 05:19:57;;;;;;;20.17;6.80;;;;;;;4.05;77.16;101589.56;5051935;28;20540;-67
